SABE

Jorge Newbery Airpark Airport

Buenos Aires, Argentina
TAF SABE 210500Z 2106/2206 31010KT 7000 -TSRA SCT010 FEW045CB BKN060 TX14/2118Z TN10/2110Z BECMG 2107/2109 23015KT 9999 SCT020 SCT100
Issued Valid From Valid To
Jun-21 @ 05:00 UTC
(5 hours ago)
Jun-21 @ 06:00 UTC
(4 hours ago)
Jun-22 @ 06:00 UTC
(in 20 hours)
Expired Click to View Jun-21 @ 06:00 to Jun-21 @ 07:00
TAF SABE 210500Z 2106/2206 31010KT 7000 -TSRA SCT010 FEW045CB BKN060 TX14/2118Z TN10/2110Z
Wind Visibility Clouds Conditions
310° at 10 knots 7,001 meters
  • Scattered at 1,000' AGL
  • Few at 4,500' AGL
  • Broken at 6,000' AGL
  • Light Thunderstorm
  • Light Rain
Becoming Jun-21 @ 07:00 to Jun-22 @ 06:00
BECMG 2107/2109 23015KT 9999 SCT020 SCT100
Wind Visibility Clouds Conditions
230° at 15 knots 10,000+ meters
  • Scattered at 2,000' AGL
  • Scattered at 10,000' AGL
  • Light Thunderstorm
  • Light Rain
TAF SABE 210500Z 2106/2206 31010KT 7000 -TSRA SCT010 FEW045CB BKN060 TX14/2118Z TN10/2110Z BECMG 2107/2109 23015KT 9999 SCT020 SCT100
Issued Jun-21 @ 05:00 UTC
(5 hours ago)
Valid From Jun-21 @ 06:00 UTC
(4 hours ago)
Valid To Jun-22 @ 06:00 UTC
(in 20 hours)
Jun-21 @ 06:00 - Jun-21 @ 07:00
Wind Visibility
310° at 10 knots 7,001 meters
Clouds
  • Scattered at 1,000' AGL
  • Few at 4,500' AGL
  • Broken at 6,000' AGL
Conditions
  • Light Thunderstorm
  • Light Rain
Becoming Jun-21 @ 07:00 - Jun-22 @ 06:00
Wind Visibility
230° at 15 knots 10,000+ meters
Clouds
  • Scattered at 2,000' AGL
  • Scattered at 10,000' AGL
Conditions
  • Light Thunderstorm
  • Light Rain